createdAt,value
2023-09-17T00:01:55.464Z,3.30
2023-09-17T00:06:57.457Z,3.22
2023-09-17T00:11:59.561Z,3.60
2023-09-17T00:17:01.491Z,3.28
2023-09-17T00:22:04.383Z,3.10
2023-09-17T00:27:06.554Z,3.58
2023-09-17T00:32:08.635Z,3.15
2023-09-17T00:37:13.041Z,3.33
2023-09-17T00:42:17.284Z,3.40
2023-09-17T00:47:19.102Z,3.60
2023-09-17T00:52:22.278Z,3.40
2023-09-17T00:57:24.391Z,3.17
2023-09-17T01:02:27.924Z,3.10
2023-09-17T01:07:30.043Z,3.53
2023-09-17T01:12:32.874Z,3.30
2023-09-17T01:17:35.865Z,3.10
2023-09-17T01:22:45.483Z,3.45
2023-09-17T01:27:47.484Z,3.65
2023-09-17T01:32:49.358Z,3.35
2023-09-17T01:37:56.211Z,4.00
2023-09-17T01:42:59.198Z,3.20
2023-09-17T01:48:02.356Z,3.10
2023-09-17T01:53:05.103Z,3.67
2023-09-17T01:58:07.057Z,3.15
2023-09-17T02:03:09.855Z,2.75
2023-09-17T02:08:11.684Z,3.22
2023-09-17T02:13:13.523Z,3.03
2023-09-17T02:18:15.611Z,2.80
2023-09-17T02:23:18.410Z,2.80
2023-09-17T02:28:20.311Z,2.53
2023-09-17T02:33:22.257Z,2.63
2023-09-17T02:38:24.075Z,2.22
2023-09-17T02:43:26.237Z,3.00
2023-09-17T02:48:28.068Z,2.70
2023-09-17T02:53:29.909Z,2.50
2023-09-17T02:58:31.709Z,2.88
2023-09-17T03:03:33.526Z,2.92
2023-09-17T03:08:35.531Z,3.03
2023-09-17T03:13:37.665Z,2.78
2023-09-17T03:18:40.083Z,3.22
2023-09-17T03:23:41.814Z,2.55
2023-09-17T03:28:43.604Z,2.72
2023-09-17T03:33:45.540Z,2.80
2023-09-17T03:38:47.421Z,3.40
2023-09-17T03:43:49.591Z,3.10
2023-09-17T03:48:51.649Z,3.42
2023-09-17T03:53:53.730Z,3.08
2023-09-17T03:58:56.064Z,2.85
2023-09-17T04:03:58.026Z,3.10
2023-09-17T04:09:00.498Z,3.00
2023-09-17T04:14:02.299Z,2.33
2023-09-17T04:19:04.348Z,2.92
2023-09-17T04:24:06.557Z,2.75
2023-09-17T04:29:11.719Z,2.50
2023-09-17T04:34:16.809Z,3.08
2023-09-17T04:39:18.580Z,3.60
2023-09-17T04:44:20.331Z,3.40
2023-09-17T04:49:22.102Z,3.40
2023-09-17T04:54:25.058Z,2.97
2023-09-17T04:59:29.008Z,2.63
2023-09-17T05:04:30.834Z,2.75
2023-09-17T05:09:32.653Z,3.17
2023-09-17T05:14:34.385Z,3.10
2023-09-17T05:19:36.722Z,3.13
2023-09-17T05:24:39.102Z,2.67
2023-09-17T05:29:42.146Z,2.88
2023-09-17T05:34:45.570Z,3.78
2023-09-17T05:39:47.393Z,2.97
2023-09-17T05:44:49.259Z,3.15
2023-09-17T05:49:51.148Z,3.03
2023-09-17T05:54:53.104Z,2.40
2023-09-17T05:59:54.899Z,3.10
2023-09-17T06:04:59.033Z,2.75
2023-09-17T06:10:02.523Z,2.63
2023-09-17T06:15:05.655Z,2.67
2023-09-17T06:20:08.165Z,2.83
2023-09-17T06:25:10.020Z,2.90
2023-09-17T06:30:12.592Z,2.88
2023-09-17T06:35:14.821Z,2.95
2023-09-17T06:40:17.054Z,2.80
2023-09-17T06:45:19.455Z,2.50
2023-09-17T06:50:21.276Z,3.13
2023-09-17T06:55:23.113Z,3.08
2023-09-17T07:00:24.935Z,3.20
2023-09-17T07:05:26.885Z,3.03
2023-09-17T07:10:28.823Z,3.10
2023-09-17T07:15:31.568Z,3.63
2023-09-17T07:20:33.392Z,3.33
2023-09-17T07:25:35.256Z,3.35
2023-09-17T07:30:38.176Z,3.33
2023-09-17T07:35:40.762Z,3.20
2023-09-17T07:40:42.680Z,3.10
2023-09-17T07:45:44.509Z,3.47
2023-09-17T07:50:55.391Z,3.88
2023-09-17T07:55:57.890Z,2.90
2023-09-17T08:00:59.762Z,3.35
2023-09-17T08:06:01.611Z,3.13
2023-09-17T08:11:04.911Z,3.00
2023-09-17T08:16:06.820Z,3.30
2023-09-17T08:21:08.603Z,2.95
2023-09-17T08:26:12.143Z,3.20
2023-09-17T08:31:13.903Z,3.20
2023-09-17T08:36:16.293Z,2.85
2023-09-17T08:41:24.182Z,3.13
2023-09-17T08:46:27.903Z,3.40
2023-09-17T08:51:34.453Z,3.35
2023-09-17T08:56:40.156Z,2.83
2023-09-17T09:01:45.888Z,3.28
2023-09-17T09:06:48.944Z,3.38
2023-09-17T09:11:51.078Z,3.63
2023-09-17T09:16:53.570Z,3.58
2023-09-17T09:21:55.517Z,3.70
2023-09-17T09:26:59.808Z,3.33
2023-09-17T09:32:01.924Z,3.63
2023-09-17T09:37:11.206Z,3.30
2023-09-17T09:42:14.530Z,3.30
2023-09-17T09:47:16.454Z,3.00
2023-09-17T09:52:19.394Z,3.50
2023-09-17T09:57:21.628Z,3.30
2023-09-17T10:02:23.573Z,3.20
2023-09-17T10:07:26.711Z,3.20
2023-09-17T10:12:28.847Z,3.17
2023-09-17T10:17:31.642Z,3.55
2023-09-17T10:22:36.657Z,3.13
2023-09-17T10:27:39.206Z,3.30
2023-09-17T10:32:42.948Z,3.20
2023-09-17T10:37:47.512Z,3.50
2023-09-17T10:42:52.343Z,3.55
2023-09-17T10:47:59.111Z,3.10
2023-09-17T10:53:01.014Z,3.47
2023-09-17T10:58:39.573Z,2.95
2023-09-17T11:03:46.249Z,3.40
2023-09-17T11:08:48.546Z,3.22
2023-09-17T11:13:52.468Z,3.70
2023-09-17T11:19:09.828Z,2.90
2023-09-17T11:24:13.844Z,3.10
2023-09-17T11:29:18.741Z,3.25
2023-09-17T11:34:22.285Z,3.03
2023-09-17T11:39:25.438Z,3.10
2023-09-17T11:44:27.942Z,2.83
2023-09-17T11:49:30.447Z,3.10
2023-09-17T11:54:35.486Z,2.80
2023-09-17T11:59:41.186Z,3.10
2023-09-17T12:04:45.396Z,2.92
2023-09-17T12:09:48.941Z,3.00
2023-09-17T12:14:51.555Z,2.95
2023-09-17T12:20:02.256Z,2.70
2023-09-17T12:25:09.803Z,2.60
2023-09-17T12:30:12.692Z,3.28
2023-09-17T12:35:15.004Z,3.13
2023-09-17T12:40:17.082Z,3.10
2023-09-17T12:45:20.818Z,2.50
2023-09-17T12:50:23.282Z,2.70
2023-09-17T12:55:28.196Z,2.83
2023-09-17T13:00:30.813Z,3.05
2023-09-17T13:05:32.730Z,2.60
2023-09-17T13:10:35.769Z,3.03
2023-09-17T13:15:37.726Z,2.78
2023-09-17T13:20:39.953Z,2.70
2023-09-17T13:25:42.685Z,2.70
2023-09-17T13:30:45.039Z,2.70
2023-09-17T13:35:52.567Z,2.90
2023-09-17T13:40:55.563Z,2.60
2023-09-17T13:46:01.067Z,2.72
2023-09-17T13:51:03.171Z,2.72
2023-09-17T13:56:06.026Z,2.53
2023-09-17T14:01:09.062Z,2.97
2023-09-17T14:06:11.596Z,2.83
2023-09-17T14:11:13.977Z,2.70
2023-09-17T14:16:16.516Z,3.05
2023-09-17T14:21:18.805Z,2.60
2023-09-17T14:26:22.193Z,2.70
2023-09-17T14:31:24.649Z,2.60
2023-09-17T14:36:26.964Z,2.58
2023-09-17T14:41:31.281Z,2.80
2023-09-17T14:46:35.844Z,2.80
2023-09-17T14:51:38.178Z,2.92
2023-09-17T14:56:40.197Z,2.90
2023-09-17T15:01:59.074Z,3.03
2023-09-17T15:07:03.200Z,3.20
2023-09-17T15:12:05.647Z,3.10
2023-09-17T15:17:07.867Z,3.03
2023-09-17T15:22:10.211Z,2.90
2023-09-17T15:27:13.246Z,3.08
2023-09-17T15:32:15.554Z,2.85
2023-09-17T15:37:18.037Z,3.05
2023-09-17T15:42:20.885Z,2.75
2023-09-17T15:47:23.508Z,3.13
2023-09-17T15:52:25.660Z,3.08
2023-09-17T15:57:28.419Z,3.20
2023-09-17T16:02:31.956Z,2.90
2023-09-17T16:07:35.851Z,3.00
2023-09-17T16:12:38.346Z,2.95
2023-09-17T16:17:42.690Z,2.92
2023-09-17T16:22:45.271Z,3.72
2023-09-17T16:27:49.073Z,3.28
2023-09-17T16:32:53.121Z,3.08
2023-09-17T16:37:55.463Z,3.33
2023-09-17T16:43:08.444Z,3.17
2023-09-17T16:48:12.612Z,2.90
2023-09-17T16:53:15.173Z,3.25
2023-09-17T16:58:20.298Z,3.25
2023-09-17T17:03:22.893Z,3.23
2023-09-17T17:08:27.037Z,3.13
2023-09-17T17:13:30.748Z,3.28
2023-09-17T17:18:33.251Z,3.53
2023-09-17T17:23:35.809Z,3.63
2023-09-17T17:28:38.028Z,3.67
2023-09-17T17:33:41.179Z,3.40
2023-09-17T17:38:44.280Z,4.55
2023-09-17T17:43:46.728Z,3.65
2023-09-17T17:48:50.816Z,3.85
2023-09-17T17:53:53.467Z,3.88
2023-09-17T17:58:56.325Z,3.65
2023-09-17T18:03:58.714Z,3.92
2023-09-17T18:09:01.898Z,4.00
2023-09-17T18:14:04.733Z,3.90
2023-09-17T18:19:07.573Z,4.55
2023-09-17T18:24:11.692Z,4.10
2023-09-17T18:29:14.673Z,3.95
2023-09-17T18:34:17.357Z,4.30
2023-09-17T18:39:20.647Z,4.43
2023-09-17T18:44:25.047Z,4.35
2023-09-17T18:49:28.307Z,4.25
2023-09-17T18:54:32.732Z,4.55
2023-09-17T18:59:38.483Z,4.20
2023-09-17T19:04:41.400Z,4.68
2023-09-17T19:09:44.779Z,4.68
2023-09-17T19:14:48.347Z,3.83
2023-09-17T19:19:51.170Z,3.95
2023-09-17T19:24:56.394Z,3.65
2023-09-17T19:29:59.361Z,3.67
2023-09-17T19:35:02.181Z,3.53
2023-09-17T19:40:05.383Z,3.50
2023-09-17T19:45:11.422Z,4.10
2023-09-17T19:55:18.782Z,3.40
2023-09-17T20:00:21.780Z,4.00
2023-09-17T20:05:25.311Z,4.00
2023-09-17T20:10:29.345Z,3.92
2023-09-17T20:15:31.902Z,4.10
2023-09-17T20:20:34.149Z,3.88
2023-09-17T20:25:37.839Z,3.78
2023-09-17T20:30:40.661Z,3.53
2023-09-17T20:35:43.075Z,3.60
2023-09-17T20:40:45.140Z,3.63
2023-09-17T20:45:47.501Z,3.72
2023-09-17T20:50:49.838Z,3.50
2023-09-17T20:55:54.807Z,4.30
2023-09-17T21:00:56.771Z,3.75
2023-09-17T21:05:58.604Z,3.78
2023-09-17T21:11:00.468Z,3.90
2023-09-17T21:16:02.282Z,3.83
2023-09-17T21:21:04.321Z,3.63
2023-09-17T21:26:12.301Z,3.88
2023-09-17T21:31:14.252Z,3.75
2023-09-17T21:36:16.053Z,4.00
2023-09-17T21:41:18.187Z,3.95
2023-09-17T21:46:20.066Z,3.47
2023-09-17T21:51:21.884Z,3.97
2023-09-17T21:56:23.708Z,3.83
2023-09-17T22:01:26.424Z,4.03
2023-09-17T22:06:28.250Z,4.07
2023-09-17T22:11:30.183Z,4.50
2023-09-17T22:16:36.661Z,4.13
2023-09-17T22:21:38.540Z,4.07
2023-09-17T22:26:40.348Z,4.15
2023-09-17T22:31:42.095Z,3.72
2023-09-17T22:36:44.285Z,4.07
2023-09-17T22:41:46.029Z,3.67
2023-09-17T22:46:47.756Z,4.07
2023-09-17T22:51:49.543Z,4.10
2023-09-17T22:56:52.602Z,3.75
2023-09-17T23:01:54.598Z,3.85
2023-09-17T23:06:56.399Z,3.58
2023-09-17T23:11:58.103Z,3.90
2023-09-17T23:16:59.916Z,3.67
2023-09-17T23:22:01.792Z,3.65
2023-09-17T23:27:03.959Z,3.95
2023-09-17T23:32:06.235Z,4.10
2023-09-17T23:37:08.371Z,4.43
2023-09-17T23:42:11.871Z,3.80
2023-09-17T23:47:13.751Z,3.50
2023-09-17T23:52:15.643Z,3.88
2023-09-17T23:57:17.684Z,4.22
